createdAt,value
2018-08-17T00:02:07.152Z,20.49
2018-08-17T00:04:35.720Z,20.48
2018-08-17T00:07:04.553Z,20.50
2018-08-17T00:09:32.974Z,20.42
2018-08-17T00:12:01.399Z,20.41
2018-08-17T00:14:29.821Z,20.39
2018-08-17T00:16:58.247Z,20.40
2018-08-17T00:19:26.659Z,20.36
2018-08-17T00:21:55.140Z,20.35
2018-08-17T00:24:23.717Z,20.32
2018-08-17T00:26:52.204Z,20.30
2018-08-17T00:29:20.635Z,20.30
2018-08-17T00:31:49.085Z,20.29
2018-08-17T00:34:17.484Z,20.32
2018-08-17T00:36:45.912Z,20.30
2018-08-17T00:39:14.300Z,20.28
2018-08-17T00:41:42.701Z,20.27
2018-08-17T00:44:11.361Z,20.30
2018-08-17T00:46:39.877Z,20.28
2018-08-17T00:49:08.340Z,20.28
2018-08-17T00:51:36.756Z,20.28
2018-08-17T00:54:06.154Z,20.27
2018-08-17T00:56:34.619Z,20.27
2018-08-17T00:59:03.077Z,20.23
2018-08-17T01:01:31.579Z,20.22
2018-08-17T01:04:00.004Z,20.20
2018-08-17T01:06:28.519Z,20.21
2018-08-17T01:08:56.959Z,20.13
2018-08-17T01:11:26.196Z,20.20
2018-08-17T01:13:54.676Z,20.19
2018-08-17T01:16:23.092Z,20.19
2018-08-17T01:18:52.342Z,20.16
2018-08-17T01:21:20.791Z,20.12
2018-08-17T01:23:49.189Z,20.13
2018-08-17T01:26:17.725Z,20.16
2018-08-17T01:28:46.093Z,20.14
2018-08-17T01:31:14.486Z,20.16
2018-08-17T01:33:42.958Z,20.18
2018-08-17T01:36:11.339Z,20.14
2018-08-17T01:38:39.828Z,20.16
2018-08-17T01:41:09.016Z,20.11
2018-08-17T01:43:37.492Z,20.01
2018-08-17T01:46:05.992Z,19.78
2018-08-17T01:48:34.392Z,19.72
2018-08-17T01:51:02.820Z,19.66
2018-08-17T01:53:32.230Z,19.65
2018-08-17T01:56:00.692Z,19.63
2018-08-17T01:58:29.109Z,19.58
2018-08-17T02:00:57.554Z,19.55
2018-08-17T02:03:26.030Z,19.57
2018-08-17T02:05:54.512Z,19.57
2018-08-17T02:08:22.985Z,19.54
2018-08-17T02:10:51.469Z,19.51
2018-08-17T02:13:19.875Z,19.39
2018-08-17T02:15:48.348Z,19.31
2018-08-17T02:18:16.755Z,19.22
2018-08-17T02:20:45.144Z,19.20
2018-08-17T02:23:13.542Z,19.18
2018-08-17T02:25:41.956Z,19.17
2018-08-17T02:28:10.403Z,19.10
2018-08-17T02:30:38.853Z,19.06
2018-08-17T02:33:07.276Z,18.97
2018-08-17T02:35:35.693Z,18.91
2018-08-17T02:38:04.169Z,18.86
2018-08-17T02:40:32.651Z,18.79
2018-08-17T02:43:01.273Z,18.75
2018-08-17T02:45:29.679Z,18.72
2018-08-17T02:47:58.121Z,18.60
2018-08-17T02:50:26.770Z,18.65
2018-08-17T02:52:55.180Z,18.63
2018-08-17T02:55:23.576Z,18.60
2018-08-17T02:57:52.101Z,18.56
2018-08-17T03:00:20.577Z,18.58
2018-08-17T03:02:48.996Z,18.61
2018-08-17T03:05:17.443Z,18.56
2018-08-17T03:07:45.957Z,18.52
2018-08-17T03:10:14.357Z,18.51
2018-08-17T03:12:42.807Z,18.45
2018-08-17T03:15:11.248Z,18.54
2018-08-17T03:17:39.637Z,18.56
2018-08-17T03:20:08.070Z,18.60
2018-08-17T03:22:36.953Z,18.58
2018-08-17T03:25:05.448Z,18.59
2018-08-17T03:27:33.891Z,18.60
2018-08-17T03:30:02.376Z,18.54
2018-08-17T03:32:30.766Z,18.53
2018-08-17T03:34:59.143Z,18.62
2018-08-17T03:37:27.839Z,18.60
2018-08-17T03:39:56.244Z,18.34
2018-08-17T03:42:24.700Z,18.34
2018-08-17T03:44:53.138Z,18.37
2018-08-17T03:47:21.597Z,18.34
2018-08-17T03:49:50.083Z,18.34
2018-08-17T03:52:19.047Z,18.28
2018-08-17T03:54:47.626Z,18.30
2018-08-17T03:57:16.543Z,18.28
2018-08-17T03:59:44.972Z,18.30
2018-08-17T04:02:13.394Z,18.30
2018-08-17T04:04:41.886Z,18.30
2018-08-17T04:07:10.349Z,18.29
2018-08-17T04:09:38.739Z,18.31
2018-08-17T04:12:07.196Z,18.33
2018-08-17T04:14:35.609Z,18.37
2018-08-17T04:17:04.038Z,18.13
2018-08-17T04:19:32.468Z,18.25
2018-08-17T04:22:01.484Z,18.20
2018-08-17T04:24:29.913Z,18.22
2018-08-17T04:26:58.783Z,18.20
2018-08-17T04:29:27.174Z,18.21
2018-08-17T04:31:55.594Z,18.24
2018-08-17T04:34:23.977Z,18.25
2018-08-17T04:36:52.407Z,18.23
2018-08-17T04:39:20.829Z,18.19
2018-08-17T04:41:49.249Z,18.27
2018-08-17T04:44:17.676Z,18.29
2018-08-17T04:46:46.096Z,18.27
2018-08-17T04:49:14.588Z,18.32
2018-08-17T04:51:42.971Z,18.32
2018-08-17T04:54:11.393Z,18.29
2018-08-17T04:56:39.767Z,18.29
2018-08-17T04:59:08.184Z,18.29
2018-08-17T05:01:36.644Z,18.32
2018-08-17T05:04:05.049Z,18.33
2018-08-17T05:06:33.493Z,18.32
2018-08-17T05:09:01.980Z,18.36
2018-08-17T05:11:30.331Z,18.43
2018-08-17T05:13:58.823Z,18.41
2018-08-17T05:16:27.189Z,18.41
2018-08-17T05:18:55.666Z,18.34
2018-08-17T05:21:24.109Z,18.25
2018-08-17T05:23:52.505Z,18.22
2018-08-17T05:26:20.884Z,18.26
2018-08-17T05:28:49.312Z,18.24
2018-08-17T05:31:17.769Z,18.25
2018-08-17T05:33:46.196Z,18.26
2018-08-17T05:36:14.653Z,18.11
2018-08-17T05:38:43.545Z,17.97
2018-08-17T05:41:11.952Z,17.92
2018-08-17T05:43:40.985Z,17.85
2018-08-17T05:46:09.423Z,17.81
2018-08-17T05:48:37.796Z,17.78
2018-08-17T05:51:06.200Z,17.72
2018-08-17T05:53:34.596Z,17.71
2018-08-17T05:56:03.030Z,17.76
2018-08-17T05:58:31.464Z,17.77
2018-08-17T06:00:59.886Z,17.71
2018-08-17T06:03:28.318Z,17.67
2018-08-17T06:05:56.789Z,17.68
2018-08-17T06:08:25.251Z,17.73
2018-08-17T06:10:53.732Z,17.77
2018-08-17T06:13:22.165Z,17.82
2018-08-17T06:15:50.590Z,17.83
2018-08-17T06:18:19.053Z,17.81
2018-08-17T06:20:47.701Z,17.72
2018-08-17T06:23:16.127Z,17.72
2018-08-17T06:25:45.734Z,17.70
2018-08-17T06:28:14.529Z,17.67
2018-08-17T06:30:43.111Z,17.68
2018-08-17T06:33:11.571Z,17.62
2018-08-17T06:35:40.035Z,17.65
2018-08-17T06:38:08.475Z,17.63
2018-08-17T06:40:37.011Z,17.63
2018-08-17T06:43:05.473Z,17.64
2018-08-17T06:45:33.972Z,17.64
2018-08-17T06:48:02.364Z,17.66
2018-08-17T06:50:30.816Z,17.63
2018-08-17T06:52:59.228Z,17.60
2018-08-17T06:55:27.660Z,17.56
2018-08-17T06:57:56.117Z,17.56
2018-08-17T07:00:24.525Z,17.55
2018-08-17T07:02:53.177Z,17.53
2018-08-17T07:05:22.343Z,17.51
2018-08-17T07:07:50.751Z,17.52
2018-08-17T07:10:19.244Z,17.53
2018-08-17T07:12:47.667Z,17.52
2018-08-17T07:15:17.025Z,17.57
2018-08-17T07:17:45.435Z,17.64
2018-08-17T07:20:14.366Z,17.67
2018-08-17T07:22:42.948Z,17.77
2018-08-17T07:25:11.515Z,17.81
2018-08-17T07:27:40.035Z,17.84
2018-08-17T07:30:09.417Z,17.83
2018-08-17T07:32:37.945Z,17.79
2018-08-17T07:35:08.014Z,17.72
2018-08-17T07:37:37.114Z,17.73
2018-08-17T07:40:08.865Z,17.71
2018-08-17T07:42:38.254Z,17.76
2018-08-17T07:45:07.596Z,17.80
2018-08-17T07:47:36.058Z,17.80
2018-08-17T07:50:04.651Z,17.78
2018-08-17T07:52:33.105Z,17.77
2018-08-17T07:55:01.923Z,17.86
2018-08-17T07:57:30.941Z,17.93
2018-08-17T07:59:59.342Z,18.04
2018-08-17T08:02:27.780Z,18.09
2018-08-17T08:04:56.264Z,18.06
2018-08-17T08:07:24.675Z,18.03
2018-08-17T08:09:54.042Z,18.00
2018-08-17T08:12:22.545Z,17.71
2018-08-17T08:14:51.788Z,17.76
2018-08-17T08:17:20.263Z,17.80
2018-08-17T08:20:31.456Z,17.85
2018-08-17T08:23:10.956Z,17.69
2018-08-17T08:25:39.720Z,17.71
2018-08-17T08:28:08.201Z,17.68
2018-08-17T08:30:36.641Z,17.69
2018-08-17T08:33:05.164Z,17.76
2018-08-17T08:35:33.576Z,17.84
2018-08-17T08:38:02.006Z,17.93
2018-08-17T08:40:30.512Z,17.91
2018-08-17T08:42:58.933Z,17.84
2018-08-17T08:45:27.365Z,17.81
2018-08-17T08:47:55.800Z,17.82
2018-08-17T08:50:24.255Z,17.77
2018-08-17T08:52:52.718Z,17.78
2018-08-17T08:55:22.125Z,17.85
2018-08-17T08:57:50.856Z,17.82
2018-08-17T09:00:19.656Z,17.85
2018-08-17T09:02:48.201Z,17.93
2018-08-17T09:05:16.692Z,17.82
2018-08-17T09:07:45.101Z,17.91
2018-08-17T09:10:13.743Z,17.91
2018-08-17T09:12:42.232Z,17.97
2018-08-17T09:15:12.559Z,17.93
2018-08-17T09:17:42.624Z,17.81
2018-08-17T09:20:13.893Z,17.79
2018-08-17T09:22:43.145Z,17.70
2018-08-17T09:25:11.881Z,17.51
2018-08-17T09:27:40.356Z,17.44
2018-08-17T09:30:10.723Z,17.40
2018-08-17T09:32:39.580Z,17.38
2018-08-17T09:35:08.276Z,17.43
2018-08-17T09:37:36.752Z,17.50
2018-08-17T09:40:06.033Z,17.49
2018-08-17T09:42:35.107Z,17.42
2018-08-17T09:45:03.677Z,17.44
2018-08-17T09:47:32.186Z,17.43
2018-08-17T09:50:00.717Z,17.47
2018-08-17T09:52:29.215Z,17.50
2018-08-17T09:54:58.258Z,17.58
2018-08-17T09:57:26.769Z,17.69
2018-08-17T09:59:55.155Z,17.60
2018-08-17T10:02:29.725Z,17.54
2018-08-17T10:05:04.276Z,17.61
2018-08-17T10:07:37.944Z,17.63
2018-08-17T10:10:11.613Z,17.65
2018-08-17T10:12:40.114Z,17.60
2018-08-17T10:15:08.548Z,17.62
2018-08-17T10:17:37.013Z,17.57
2018-08-17T10:20:12.860Z,17.43
2018-08-17T10:22:42.516Z,17.44
2018-08-17T10:25:15.636Z,17.61
2018-08-17T10:27:45.193Z,17.85
2018-08-17T10:30:13.661Z,17.99
2018-08-17T10:32:47.322Z,18.12
2018-08-17T10:35:19.900Z,18.11
2018-08-17T10:37:48.397Z,18.17
2018-08-17T10:40:16.864Z,18.11
2018-08-17T10:42:45.651Z,18.26
2018-08-17T10:45:14.069Z,18.29
2018-08-17T10:47:42.516Z,18.32
2018-08-17T10:50:16.379Z,18.47
2018-08-17T10:52:44.777Z,18.56
2018-08-17T10:55:13.647Z,18.53
2018-08-17T10:57:42.221Z,18.51
2018-08-17T11:00:14.336Z,18.43
2018-08-17T11:02:43.444Z,18.26
2018-08-17T11:05:12.615Z,18.24
2018-08-17T11:07:41.080Z,18.20
2018-08-17T11:10:10.902Z,18.20
2018-08-17T11:12:41.030Z,18.18
2018-08-17T11:15:10.260Z,18.20
2018-08-17T11:17:38.733Z,18.24
2018-08-17T11:20:07.317Z,18.29
2018-08-17T11:22:36.283Z,18.34
2018-08-17T11:25:06.393Z,18.34
2018-08-17T11:27:36.148Z,18.31
2018-08-17T11:30:06.889Z,18.36
2018-08-17T11:32:35.377Z,18.16
2018-08-17T11:35:03.890Z,17.89
2018-08-17T11:37:32.640Z,17.88
2018-08-17T11:40:02.212Z,17.95
2018-08-17T11:42:36.795Z,18.07
2018-08-17T11:45:09.725Z,18.08
2018-08-17T11:47:38.781Z,18.13
2018-08-17T11:50:09.744Z,18.17
2018-08-17T11:52:44.495Z,18.10
2018-08-17T11:55:12.909Z,18.04
2018-08-17T11:57:41.829Z,18.10
2018-08-17T12:00:10.265Z,18.13
2018-08-17T12:02:38.681Z,18.09
2018-08-17T12:05:07.687Z,18.04
2018-08-17T12:07:36.260Z,18.03
2018-08-17T12:10:05.690Z,18.09
2018-08-17T12:12:35.343Z,18.24
2018-08-17T12:15:04.982Z,18.37
2018-08-17T12:17:33.919Z,18.46
2018-08-17T12:20:02.543Z,18.40
2018-08-17T12:25:13.676Z,18.36
2018-08-17T12:27:46.948Z,18.34
2018-08-17T12:30:15.407Z,18.46
2018-08-17T12:32:43.886Z,18.52
2018-08-17T12:35:12.308Z,18.54
2018-08-17T12:37:40.769Z,18.68
2018-08-17T12:40:09.248Z,19.16
2018-08-17T12:42:38.573Z,19.75
2018-08-17T12:45:12.398Z,20.13
2018-08-17T12:47:40.783Z,20.31
2018-08-17T12:50:09.227Z,20.19
2018-08-17T12:52:37.648Z,20.11
2018-08-17T12:55:06.165Z,20.11
2018-08-17T12:57:39.882Z,20.04
2018-08-17T13:00:08.347Z,19.77
2018-08-17T13:02:36.831Z,19.59
2018-08-17T13:05:05.394Z,19.56
2018-08-17T13:07:33.876Z,19.40
2018-08-17T13:10:02.320Z,19.34
2018-08-17T13:12:30.752Z,19.94
2018-08-17T13:14:59.196Z,20.28
2018-08-17T13:17:31.906Z,20.55
2018-08-17T13:20:00.765Z,20.73
2018-08-17T13:22:29.223Z,20.38
2018-08-17T13:24:57.612Z,19.98
2018-08-17T13:27:26.619Z,19.65
2018-08-17T13:29:55.334Z,19.91
2018-08-17T13:32:23.725Z,20.13
2018-08-17T13:34:52.350Z,20.23
2018-08-17T13:37:20.901Z,20.16
2018-08-17T13:39:49.371Z,20.01
2018-08-17T13:42:17.797Z,19.94
2018-08-17T13:44:46.256Z,20.04
2018-08-17T13:47:14.950Z,19.95
2018-08-17T13:49:43.503Z,20.22
2018-08-17T13:52:11.961Z,20.60
2018-08-17T13:54:40.362Z,20.71
2018-08-17T13:57:08.764Z,20.44
2018-08-17T13:59:37.222Z,20.98
2018-08-17T14:02:05.753Z,21.24
2018-08-17T14:04:34.925Z,21.38
2018-08-17T14:07:03.428Z,21.40
2018-08-17T14:09:32.403Z,21.01
2018-08-17T14:12:00.995Z,21.15
2018-08-17T14:14:29.445Z,21.48
2018-08-17T14:16:58.051Z,21.54
2018-08-17T14:19:26.513Z,21.60
2018-08-17T14:21:54.985Z,21.69
2018-08-17T14:24:23.510Z,21.60
2018-08-17T14:26:52.006Z,21.44
2018-08-17T14:29:20.619Z,21.37
2018-08-17T14:31:50.505Z,21.35
2018-08-17T14:34:18.964Z,21.20
2018-08-17T14:36:47.411Z,21.11
2018-08-17T14:39:15.879Z,21.10
2018-08-17T14:41:53.703Z,21.08
2018-08-17T14:44:22.900Z,21.07
2018-08-17T14:46:52.144Z,20.94
2018-08-17T14:49:20.724Z,20.98
2018-08-17T14:51:49.803Z,21.13
2018-08-17T14:54:18.299Z,20.99
2018-08-17T14:56:46.867Z,20.84
2018-08-17T14:59:15.693Z,20.67
2018-08-17T15:01:44.175Z,20.54
2018-08-17T15:04:12.612Z,20.42
2018-08-17T15:06:41.090Z,20.30
2018-08-17T15:09:11.757Z,20.23
2018-08-17T15:11:41.192Z,20.36
2018-08-17T15:14:11.257Z,20.33
2018-08-17T15:16:39.776Z,20.30
2018-08-17T15:19:08.320Z,20.21
2018-08-17T15:21:36.853Z,20.40
2018-08-17T15:24:05.322Z,20.58
2018-08-17T15:26:33.832Z,20.55
2018-08-17T15:29:02.269Z,20.42
2018-08-17T15:31:30.738Z,20.33
2018-08-17T15:33:59.194Z,20.32
2018-08-17T15:36:27.656Z,20.30
2018-08-17T15:38:56.119Z,20.28
2018-08-17T15:41:24.671Z,20.24
2018-08-17T15:43:54.003Z,20.26
2018-08-17T15:46:22.925Z,20.38
2018-08-17T15:48:52.981Z,20.60
2018-08-17T15:51:22.724Z,20.59
2018-08-17T15:53:51.371Z,20.56
2018-08-17T15:56:20.222Z,20.51
2018-08-17T15:58:48.901Z,20.54
2018-08-17T16:01:17.502Z,20.70
2018-08-17T16:03:45.923Z,20.85
2018-08-17T16:06:14.405Z,20.99
2018-08-17T16:08:42.834Z,21.05
2018-08-17T16:11:11.303Z,21.06
2018-08-17T16:13:40.800Z,21.08
2018-08-17T16:16:09.375Z,20.86
2018-08-17T16:18:38.590Z,20.83
2018-08-17T16:21:07.090Z,20.89
2018-08-17T16:23:35.571Z,20.99
2018-08-17T16:26:04.127Z,21.02
2018-08-17T16:28:32.756Z,21.09
2018-08-17T16:31:01.161Z,21.17
2018-08-17T16:33:29.697Z,21.20
2018-08-17T16:35:58.219Z,21.23
2018-08-17T16:38:26.665Z,21.24
2018-08-17T16:40:55.176Z,21.16
2018-08-17T16:43:28.991Z,21.06
2018-08-17T16:45:57.419Z,21.11
2018-08-17T16:48:26.522Z,21.16
2018-08-17T16:50:54.997Z,21.16
2018-08-17T16:55:50.824Z,21.10
2018-08-17T16:58:20.129Z,20.98
2018-08-17T17:00:48.648Z,20.96
2018-08-17T17:03:17.108Z,21.03
2018-08-17T17:05:45.673Z,21.10
2018-08-17T17:08:14.097Z,21.11
2018-08-17T17:10:42.582Z,21.15
2018-08-17T17:13:11.017Z,21.19
2018-08-17T17:15:39.504Z,21.15
2018-08-17T17:18:09.167Z,21.16
2018-08-17T17:20:38.719Z,20.98
2018-08-17T17:23:09.437Z,20.84
2018-08-17T17:25:38.021Z,20.69
2018-08-17T17:28:07.034Z,20.58
2018-08-17T17:30:44.164Z,20.50
2018-08-17T17:33:12.700Z,20.42
2018-08-17T17:35:42.214Z,20.39
2018-08-17T17:38:11.449Z,20.33
2018-08-17T17:40:40.577Z,20.33
2018-08-17T17:43:09.219Z,20.28
2018-08-17T17:45:38.329Z,20.25
2018-08-17T17:48:07.759Z,20.18
2018-08-17T17:50:36.270Z,20.17
2018-08-17T17:53:04.834Z,20.14
2018-08-17T17:55:42.695Z,20.10
2018-08-17T17:58:11.393Z,20.11
2018-08-17T18:00:39.868Z,20.08
2018-08-17T18:03:08.781Z,20.01
2018-08-17T18:05:37.848Z,19.94
2018-08-17T18:08:11.712Z,19.88
2018-08-17T18:10:40.182Z,19.85
2018-08-17T18:13:08.688Z,19.83
2018-08-17T18:15:37.012Z,19.77
2018-08-17T18:18:05.514Z,19.71
2018-08-17T18:20:33.986Z,19.63
2018-08-17T18:23:02.418Z,19.59
2018-08-17T18:25:30.837Z,19.56
2018-08-17T18:27:59.342Z,19.41
2018-08-17T18:30:28.442Z,19.36
2018-08-17T18:32:57.494Z,19.29
2018-08-17T18:35:26.039Z,19.18
2018-08-17T18:37:54.473Z,19.09
2018-08-17T18:40:22.961Z,19.00
2018-08-17T18:42:51.344Z,18.99
2018-08-17T18:45:19.790Z,18.90
2018-08-17T18:47:48.250Z,18.80
2018-08-17T18:50:16.689Z,18.78
2018-08-17T18:52:46.808Z,18.75
2018-08-17T18:55:15.306Z,18.70
2018-08-17T18:57:43.722Z,18.67
2018-08-17T19:00:13.627Z,18.56
2018-08-17T19:02:42.990Z,18.52
2018-08-17T19:05:11.845Z,18.48
2018-08-17T19:07:40.354Z,18.40
2018-08-17T19:10:09.775Z,18.27
2018-08-17T19:12:38.156Z,18.22
2018-08-17T19:15:13.540Z,18.16
2018-08-17T19:17:42.473Z,18.08
2018-08-17T19:20:12.549Z,18.06
2018-08-17T19:22:43.097Z,18.00
2018-08-17T19:25:12.934Z,17.96
2018-08-17T19:27:41.948Z,17.94
2018-08-17T19:30:21.682Z,17.89
2018-08-17T19:32:50.399Z,17.83
2018-08-17T19:35:19.057Z,17.83
2018-08-17T19:37:47.843Z,17.81
2018-08-17T19:40:16.283Z,17.79
2018-08-17T19:42:44.774Z,17.84
2018-08-17T19:45:13.214Z,17.70
2018-08-17T19:47:41.792Z,17.57
2018-08-17T19:50:10.296Z,17.58
2018-08-17T19:52:38.669Z,17.53
2018-08-17T19:55:07.656Z,17.50
2018-08-17T19:57:36.034Z,17.33
2018-08-17T20:00:07.055Z,17.33
2018-08-17T20:02:35.457Z,17.25
2018-08-17T20:05:04.002Z,17.16
2018-08-17T20:07:32.495Z,17.12
2018-08-17T20:10:01.721Z,17.15
2018-08-17T20:12:30.800Z,17.16
2018-08-17T20:14:59.801Z,17.12
2018-08-17T20:17:28.276Z,17.06
2018-08-17T20:19:56.694Z,17.02
2018-08-17T20:22:25.194Z,17.09
2018-08-17T20:24:53.641Z,17.05
2018-08-17T20:27:22.104Z,17.03
2018-08-17T20:29:50.540Z,17.05
2018-08-17T20:32:19.711Z,17.08
2018-08-17T20:34:49.962Z,17.01
2018-08-17T20:37:18.764Z,16.94
2018-08-17T20:39:48.304Z,16.86
2018-08-17T20:42:16.724Z,16.80
2018-08-17T20:44:45.200Z,16.70
2018-08-17T20:47:13.724Z,16.66
2018-08-17T20:49:42.173Z,16.59
2018-08-17T20:52:11.134Z,16.65
2018-08-17T20:54:39.872Z,16.59
2018-08-17T20:57:08.264Z,16.59
2018-08-17T20:59:36.705Z,16.60
2018-08-17T21:02:05.162Z,16.58
2018-08-17T21:04:33.619Z,16.59
2018-08-17T21:07:02.086Z,16.57
2018-08-17T21:09:30.707Z,16.53
2018-08-17T21:11:59.157Z,16.50
2018-08-17T21:14:27.569Z,16.42
2018-08-17T21:16:55.946Z,16.41
2018-08-17T21:19:43.465Z,16.39
2018-08-17T21:22:12.072Z,16.34
2018-08-17T21:24:40.590Z,16.32
2018-08-17T21:27:09.625Z,16.25
2018-08-17T21:29:38.097Z,16.18
2018-08-17T21:32:06.471Z,16.17
2018-08-17T21:34:34.859Z,16.17
2018-08-17T21:37:03.448Z,16.15
2018-08-17T21:39:31.924Z,16.13
2018-08-17T21:42:00.367Z,16.12
2018-08-17T21:44:28.807Z,16.07
2018-08-17T21:47:03.441Z,16.07
2018-08-17T21:49:31.889Z,16.04
2018-08-17T21:52:02.854Z,16.01
2018-08-17T21:54:32.665Z,16.01
2018-08-17T21:57:01.982Z,16.02
2018-08-17T21:59:36.118Z,16.01
2018-08-17T22:02:06.336Z,16.04
2018-08-17T22:04:35.157Z,16.08
2018-08-17T22:07:08.825Z,16.08
2018-08-17T22:09:40.753Z,16.04
2018-08-17T22:12:10.177Z,15.95
2018-08-17T22:14:39.128Z,15.91
2018-08-17T22:17:11.993Z,15.84
2018-08-17T22:19:41.696Z,15.80
2018-08-17T22:22:11.775Z,15.84
2018-08-17T22:24:45.273Z,15.91
2018-08-17T22:27:16.229Z,15.94
2018-08-17T22:29:46.694Z,15.99
2018-08-17T22:32:15.120Z,15.99
2018-08-17T22:34:43.629Z,15.96
2018-08-17T22:37:12.497Z,15.89
2018-08-17T22:39:40.932Z,15.82
2018-08-17T22:42:09.644Z,15.78
2018-08-17T22:44:38.080Z,15.79
2018-08-17T22:47:12.318Z,15.80
2018-08-17T22:49:40.800Z,15.74
2018-08-17T22:52:09.260Z,15.77
2018-08-17T22:54:41.814Z,15.73
2018-08-17T22:57:10.653Z,15.66
2018-08-17T22:59:39.130Z,15.62
2018-08-17T23:02:07.760Z,15.57
2018-08-17T23:04:36.148Z,15.48
2018-08-17T23:07:04.653Z,15.38
2018-08-17T23:09:33.092Z,15.33
2018-08-17T23:12:01.497Z,15.30
2018-08-17T23:14:29.939Z,15.28
2018-08-17T23:16:58.367Z,15.23
2018-08-17T23:19:26.783Z,15.23
2018-08-17T23:21:55.202Z,15.23
2018-08-17T23:24:23.597Z,15.29
2018-08-17T23:26:52.085Z,15.37
2018-08-17T23:29:20.496Z,15.37
2018-08-17T23:31:48.923Z,15.42
2018-08-17T23:34:17.278Z,15.44
2018-08-17T23:36:45.723Z,15.41
2018-08-17T23:39:14.168Z,15.34
2018-08-17T23:41:43.401Z,15.21
2018-08-17T23:44:11.843Z,15.17
2018-08-17T23:46:40.256Z,15.21
2018-08-17T23:49:08.740Z,15.20
2018-08-17T23:51:37.186Z,15.20
2018-08-17T23:54:05.576Z,15.24
2018-08-17T23:56:33.965Z,15.28
2018-08-17T23:59:02.397Z,15.23
